Time;durP1;ratioP1;P1;durP2;ratioP2;P2;SDS_P1;SDS_P2;PMS_P1;PMS_P2;Temp;Humidity;BMP_temperature;BMP_pressure;BME280_temperature;BME280_humidity;BME280_pressure;Samples;Min_cycle;Max_cycle;Signal;HPM_P1;HPM_P2
2022/12/19 00:01:20;;;;;;;;;;;-1.50;99.90;;;;;;5041742;28;19935;-58
2022/12/19 00:03:47;;;;;;;;;;;-1.50;99.90;;;;;;5049890;28;20028;-58
2022/12/19 00:06:16;;;;;;;;;;;-1.50;99.90;;;;;;5049456;28;19924;-59
2022/12/19 00:08:44;;;;;;;;;;;-1.50;99.90;;;;;;5044709;28;20391;-56
2022/12/19 00:11:12;;;;;;;;;;;-1.50;99.90;;;;;;5043312;28;19925;-58
2022/12/19 00:13:39;;;;;;;;;;;-1.50;99.90;;;;;;5034851;28;19995;-58
2022/12/19 00:16:07;;;;;;;;;;;-1.50;99.90;;;;;;5046818;28;20007;-58
2022/12/19 00:18:34;;;;;;;;;;;-1.50;99.90;;;;;;5040722;28;19928;-58
2022/12/19 00:21:01;;;;;;;;;;;-1.50;99.90;;;;;;5045373;28;19928;-59
2022/12/19 00:23:30;;;;;;;;;;;-1.50;99.90;;;;;;5053007;28;19924;-57
2022/12/19 00:26:06;;;;;;;;;;;-1.50;99.90;;;;;;5045903;28;20008;-57
2022/12/19 00:28:33;;;;;;;;;;;-1.50;99.90;;;;;;5046828;28;19932;-57
2022/12/19 00:30:59;;;;;;;;;;;-1.50;99.90;;;;;;5049682;28;19925;-57
2022/12/19 00:33:26;;;;;;;;;;;-1.50;99.90;;;;;;5051665;28;20430;-57
2022/12/19 00:35:57;;;;;;;;;;;-1.50;99.90;;;;;;5042161;28;20350;-57
2022/12/19 00:38:23;;;;;;;;;;;-1.50;99.90;;;;;;5047784;28;19940;-57
2022/12/19 00:40:51;;;;;;;;;;;-1.50;99.90;;;;;;5052494;28;19924;-57
2022/12/19 00:43:18;;;;;;;;;;;-1.50;99.90;;;;;;5048989;28;20007;-57
2022/12/19 00:45:45;;;;;;;;;;;-1.50;99.90;;;;;;5047965;28;20308;-57
2022/12/19 00:48:12;;;;;;;;;;;-1.50;99.90;;;;;;5060089;28;20356;-57
2022/12/19 00:50:39;;;;;;;;;;;-1.50;99.90;;;;;;5047890;28;19978;-57
2022/12/19 00:53:06;;;;;;;;;;;-1.50;99.90;;;;;;5047019;28;19963;-57
2022/12/19 00:55:33;;;;;;;;;;;-1.50;99.90;;;;;;5054123;28;19975;-57
2022/12/19 00:58:02;;;;;;;;;;;-1.50;99.90;;;;;;5048133;28;19925;-57
2022/12/19 01:00:28;;;;;;;;;;;-1.50;99.90;;;;;;5047683;28;19929;-57
2022/12/19 01:02:57;;;;;;;;;;;-1.50;99.90;;;;;;5039931;28;19931;-57
2022/12/19 01:05:24;;;;;;;;;;;-1.50;99.90;;;;;;5052543;28;19924;-57
2022/12/19 01:07:50;;;;;;;;;;;-1.50;99.90;;;;;;5047064;28;19944;-57
2022/12/19 01:10:17;;;;;;;;;;;-1.50;99.90;;;;;;5053740;28;19972;-57
2022/12/19 01:12:46;;;;;;;;;;;-1.50;99.90;;;;;;5053877;28;19932;-57
2022/12/19 01:15:15;;;;;;;;;;;-1.50;99.90;;;;;;5050124;28;19927;-57
2022/12/19 01:17:42;;;;;;;;;;;-1.50;99.90;;;;;;5047051;28;19933;-57
2022/12/19 01:20:09;;;;;;;;;;;-1.50;99.90;;;;;;5048763;28;19925;-57
2022/12/19 01:22:36;;;;;;;;;;;-1.50;99.90;;;;;;5050502;28;19930;-57
2022/12/19 01:25:03;;;;;;;;;;;-1.50;99.90;;;;;;5045881;28;20019;-56
2022/12/19 01:27:30;;;;;;;;;;;-1.50;99.90;;;;;;5057433;28;20367;-56
2022/12/19 01:29:58;;;;;;;;;;;-1.50;99.90;;;;;;5048994;28;19964;-56
2022/12/19 01:32:27;;;;;;;;;;;-1.50;99.90;;;;;;5054848;28;19929;-57
2022/12/19 01:34:54;;;;;;;;;;;-1.50;99.90;;;;;;5053585;28;19931;-57
2022/12/19 01:37:21;;;;;;;;;;;-1.50;99.90;;;;;;5035647;28;19936;-57
2022/12/19 01:39:47;;;;;;;;;;;-1.50;99.90;;;;;;5038042;28;19925;-55
2022/12/19 01:42:15;;;;;;;;;;;-1.50;99.90;;;;;;5044412;28;20008;-56
2022/12/19 01:44:57;;;;;;;;;;;-1.50;99.90;;;;;;5044947;28;19947;-55
2022/12/19 01:47:24;;;;;;;;;;;-1.50;99.90;;;;;;5042323;28;19931;-56
2022/12/19 01:49:52;;;;;;;;;;;-1.50;99.90;;;;;;5050417;28;19932;-56
2022/12/19 01:52:18;;;;;;;;;;;-1.50;99.90;;;;;;5040999;28;19933;-55
2022/12/19 01:54:47;;;;;;;;;;;-1.50;99.90;;;;;;5043182;28;19932;-56
2022/12/19 01:57:18;;;;;;;;;;;-1.50;99.90;;;;;;5052651;28;19933;-56
2022/12/19 01:59:48;;;;;;;;;;;-1.50;99.90;;;;;;5043519;28;21325;-56
2022/12/19 02:02:18;;;;;;;;;;;-1.50;99.90;;;;;;5045737;28;20291;-55
2022/12/19 02:04:45;;;;;;;;;;;-1.50;99.90;;;;;;5038193;28;19931;-56
2022/12/19 02:07:14;;;;;;;;;;;-1.50;99.90;;;;;;5032293;28;19929;-56
2022/12/19 02:09:41;;;;;;;;;;;-1.50;99.90;;;;;;5042595;28;20034;-58
2022/12/19 02:12:08;;;;;;;;;;;-1.50;99.90;;;;;;5042228;28;19932;-59
2022/12/19 02:14:36;;;;;;;;;;;-1.50;99.90;;;;;;5048402;28;20018;-59
2022/12/19 02:17:05;;;;;;;;;;;-1.50;99.90;;;;;;5040063;28;20021;-58
2022/12/19 02:19:44;;;;;;;;;;;-1.50;99.90;;;;;;5048504;28;20663;-58
2022/12/19 02:22:13;;;;;;;;;;;-1.50;99.90;;;;;;5038228;28;19924;-58
2022/12/19 02:25:05;;;;;;;;;;;-1.50;99.90;;;;;;5047257;28;19932;-58
2022/12/19 02:28:05;;;;;;;;;;;-1.50;99.90;;;;;;5047637;28;20029;-58
2022/12/19 02:30:40;;;;;;;;;;;-1.50;99.90;;;;;;5041618;28;19936;-58
2022/12/19 02:33:13;;;;;;;;;;;-1.50;99.90;;;;;;5042599;28;19929;-58
2022/12/19 02:35:42;;;;;;;;;;;-1.50;99.90;;;;;;5039896;28;19933;-58
2022/12/19 02:38:14;;;;;;;;;;;-1.50;99.90;;;;;;5042415;28;19925;-58
2022/12/19 02:40:42;;;;;;;;;;;-1.50;99.90;;;;;;5051189;28;19929;-58
2022/12/19 02:43:14;;;;;;;;;;;-1.50;99.90;;;;;;5037144;28;20454;-58
2022/12/19 02:45:44;;;;;;;;;;;-1.50;99.90;;;;;;5040224;28;19944;-58
2022/12/19 02:48:11;;;;;;;;;;;-1.50;99.90;;;;;;5046703;28;19928;-58
2022/12/19 02:50:39;;;;;;;;;;;-1.50;99.90;;;;;;5043690;28;19932;-58
2022/12/19 02:53:06;;;;;;;;;;;-1.50;99.90;;;;;;5036481;28;19929;-57
2022/12/19 02:55:36;;;;;;;;;;;-1.50;99.90;;;;;;5050561;28;19941;-58
2022/12/19 02:58:17;;;;;;;;;;;-1.50;99.90;;;;;;5040307;28;19933;-58
2022/12/19 03:00:50;;;;;;;;;;;-1.50;99.90;;;;;;5038738;28;19932;-58
2022/12/19 03:03:21;;;;;;;;;;;-1.50;99.90;;;;;;5046099;28;19924;-58
2022/12/19 03:05:53;;;;;;;;;;;-1.50;99.90;;;;;;5050103;28;19925;-59
2022/12/19 03:08:23;;;;;;;;;;;-1.40;99.90;;;;;;5041612;28;19929;-59
2022/12/19 03:10:54;;;;;;;;;;;-1.40;99.90;;;;;;5040837;28;20007;-59
2022/12/19 03:13:22;;;;;;;;;;;-1.40;99.90;;;;;;5040493;28;19928;-59
2022/12/19 03:15:51;;;;;;;;;;;-1.40;99.90;;;;;;5048721;28;19924;-59
2022/12/19 03:18:18;;;;;;;;;;;-1.40;99.90;;;;;;5039481;28;20070;-58
2022/12/19 03:20:47;;;;;;;;;;;-1.50;99.90;;;;;;5042427;28;19932;-59
2022/12/19 03:23:15;;;;;;;;;;;-1.40;99.90;;;;;;5037430;28;19960;-59
2022/12/19 03:25:44;;;;;;;;;;;-1.40;99.90;;;;;;5042928;28;19929;-58
2022/12/19 03:28:12;;;;;;;;;;;-1.40;99.90;;;;;;5026774;28;20027;-59
2022/12/19 03:30:40;;;;;;;;;;;-1.50;99.90;;;;;;5042527;28;19925;-59
2022/12/19 03:33:10;;;;;;;;;;;-1.40;99.90;;;;;;5044206;28;20007;-60
2022/12/19 03:35:37;;;;;;;;;;;-1.40;99.90;;;;;;5045090;28;20013;-59
2022/12/19 03:38:04;;;;;;;;;;;-1.40;99.90;;;;;;5041674;28;19929;-59
2022/12/19 03:40:33;;;;;;;;;;;-1.40;99.90;;;;;;5044481;28;19933;-59
2022/12/19 03:43:09;;;;;;;;;;;-1.40;99.90;;;;;;5050415;28;19940;-59
2022/12/19 03:45:42;;;;;;;;;;;-1.40;99.90;;;;;;5042521;28;19929;-59
2022/12/19 03:48:11;;;;;;;;;;;-1.40;99.90;;;;;;5040306;28;19935;-57
2022/12/19 03:50:46;;;;;;;;;;;-1.40;99.90;;;;;;5029500;28;19983;-58
2022/12/19 03:53:19;;;;;;;;;;;-1.40;99.90;;;;;;5041387;28;20435;-58
2022/12/19 03:55:47;;;;;;;;;;;-1.40;99.90;;;;;;5041730;28;20023;-58
2022/12/19 03:58:17;;;;;;;;;;;-1.40;99.90;;;;;;5046102;28;19932;-58
2022/12/19 04:00:46;;;;;;;;;;;-1.40;99.90;;;;;;5043996;28;20432;-58
2022/12/19 04:03:15;;;;;;;;;;;-1.40;99.90;;;;;;5044620;28;19925;-59
2022/12/19 04:05:43;;;;;;;;;;;-1.40;99.90;;;;;;5029006;28;19971;-59
2022/12/19 04:08:11;;;;;;;;;;;-1.40;99.90;;;;;;5050509;28;20020;-59
2022/12/19 04:10:40;;;;;;;;;;;-1.40;99.90;;;;;;5047111;28;19949;-58
2022/12/19 04:13:10;;;;;;;;;;;-1.40;99.90;;;;;;5045402;28;19936;-59
2022/12/19 04:15:42;;;;;;;;;;;-1.40;99.90;;;;;;5050015;28;19932;-59
2022/12/19 04:18:10;;;;;;;;;;;-1.40;99.90;;;;;;5038874;28;19937;-57
2022/12/19 04:20:39;;;;;;;;;;;-1.40;99.90;;;;;;5051578;28;19925;-57
2022/12/19 04:23:09;;;;;;;;;;;-1.40;99.90;;;;;;5044526;28;19929;-58
2022/12/19 04:25:38;;;;;;;;;;;-1.40;99.90;;;;;;5044536;28;19925;-57
2022/12/19 04:28:06;;;;;;;;;;;-1.40;99.90;;;;;;5046583;28;19924;-57
2022/12/19 04:30:33;;;;;;;;;;;-1.40;99.90;;;;;;5045494;28;20388;-57
2022/12/19 04:33:00;;;;;;;;;;;-1.40;99.90;;;;;;5050641;28;19933;-57
2022/12/19 04:35:27;;;;;;;;;;;-1.40;99.90;;;;;;5050420;28;19979;-57
2022/12/19 04:37:55;;;;;;;;;;;-1.40;99.90;;;;;;5044225;28;20020;-56
2022/12/19 04:40:22;;;;;;;;;;;-1.40;99.90;;;;;;5030648;28;20573;-57
2022/12/19 04:42:49;;;;;;;;;;;-1.40;99.90;;;;;;5052583;28;19965;-58
2022/12/19 04:45:15;;;;;;;;;;;-1.40;99.90;;;;;;5046229;28;19939;-57
2022/12/19 04:47:42;;;;;;;;;;;-1.40;99.90;;;;;;5049131;28;19931;-57
2022/12/19 04:50:09;;;;;;;;;;;-1.40;99.90;;;;;;5045516;28;19964;-57
2022/12/19 04:52:36;;;;;;;;;;;-1.40;99.90;;;;;;5046865;28;19931;-57
2022/12/19 04:55:05;;;;;;;;;;;-1.40;99.90;;;;;;5051718;28;19939;-56
2022/12/19 04:57:32;;;;;;;;;;;-1.40;99.90;;;;;;5046724;28;19940;-57
2022/12/19 04:59:58;;;;;;;;;;;-1.40;99.90;;;;;;5043226;28;19924;-57
2022/12/19 05:02:25;;;;;;;;;;;-1.40;99.90;;;;;;5035392;28;19925;-57
2022/12/19 05:04:52;;;;;;;;;;;-1.40;99.90;;;;;;5042296;28;20398;-57
2022/12/19 05:07:19;;;;;;;;;;;-1.40;99.90;;;;;;5039537;28;20407;-57
2022/12/19 05:09:49;;;;;;;;;;;-1.40;99.90;;;;;;5042779;28;19925;-57
2022/12/19 05:12:18;;;;;;;;;;;-1.40;99.90;;;;;;5034709;28;19928;-57
2022/12/19 05:14:45;;;;;;;;;;;-1.40;99.90;;;;;;5046891;28;21547;-57
2022/12/19 05:17:12;;;;;;;;;;;-1.40;99.90;;;;;;5050637;28;20604;-57
2022/12/19 05:19:38;;;;;;;;;;;-1.40;99.90;;;;;;5051683;28;20114;-57
2022/12/19 05:22:05;;;;;;;;;;;-1.40;99.90;;;;;;5045398;28;20143;-57
2022/12/19 05:24:32;;;;;;;;;;;-1.30;99.90;;;;;;5047842;28;19929;-57
2022/12/19 05:26:59;;;;;;;;;;;-1.30;99.90;;;;;;5054297;28;20295;-57
2022/12/19 05:29:27;;;;;;;;;;;-1.30;99.90;;;;;;5054271;28;19935;-57
2022/12/19 05:31:53;;;;;;;;;;;-1.30;99.90;;;;;;5046571;28;20586;-57
2022/12/19 05:34:20;;;;;;;;;;;-1.30;99.90;;;;;;5047899;28;20327;-57
2022/12/19 05:36:47;;;;;;;;;;;-1.30;99.90;;;;;;5045712;28;19929;-58
2022/12/19 05:39:14;;;;;;;;;;;-1.30;99.90;;;;;;5041144;28;20461;-58
2022/12/19 05:41:41;;;;;;;;;;;-1.30;99.90;;;;;;5046932;28;19939;-55
2022/12/19 05:44:09;;;;;;;;;;;-1.30;99.90;;;;;;5055888;28;19928;-55
2022/12/19 05:46:37;;;;;;;;;;;-1.30;99.90;;;;;;5062294;28;19931;-55
2022/12/19 05:49:04;;;;;;;;;;;-1.30;99.90;;;;;;5039000;28;19928;-55
2022/12/19 05:51:31;;;;;;;;;;;-1.30;99.90;;;;;;5042338;28;20323;-55
2022/12/19 05:53:59;;;;;;;;;;;-1.30;99.90;;;;;;5047398;28;19925;-55
2022/12/19 05:56:26;;;;;;;;;;;-1.30;99.90;;;;;;5043866;28;19940;-55
2022/12/19 05:58:53;;;;;;;;;;;-1.30;99.90;;;;;;5043098;28;19924;-56
2022/12/19 06:01:21;;;;;;;;;;;-1.30;99.90;;;;;;5037071;28;20407;-55
2022/12/19 06:03:49;;;;;;;;;;;-1.30;99.90;;;;;;5041795;28;19932;-55
2022/12/19 06:06:17;;;;;;;;;;;-1.30;99.90;;;;;;5046680;28;19939;-58
2022/12/19 06:08:44;;;;;;;;;;;-1.20;99.90;;;;;;5042641;28;19978;-55
2022/12/19 06:11:12;;;;;;;;;;;-1.20;99.90;;;;;;5048091;28;19935;-55
2022/12/19 06:13:39;;;;;;;;;;;-1.20;99.90;;;;;;5041869;28;20019;-55
2022/12/19 06:16:06;;;;;;;;;;;-1.20;99.90;;;;;;5024214;28;20364;-55
2022/12/19 06:18:33;;;;;;;;;;;-1.20;99.90;;;;;;5040153;28;20059;-55
2022/12/19 06:21:02;;;;;;;;;;;-1.20;99.90;;;;;;5049851;28;19929;-55
2022/12/19 06:23:29;;;;;;;;;;;-1.20;99.90;;;;;;5047927;28;20372;-55
2022/12/19 06:25:57;;;;;;;;;;;-1.20;99.90;;;;;;5038754;28;20383;-55
2022/12/19 06:28:24;;;;;;;;;;;-1.20;99.90;;;;;;5034984;28;20410;-55
2022/12/19 06:30:50;;;;;;;;;;;-1.20;99.90;;;;;;5052757;28;19947;-55
2022/12/19 06:33:17;;;;;;;;;;;-1.20;99.90;;;;;;5045599;28;20063;-57
2022/12/19 06:35:44;;;;;;;;;;;-1.20;99.90;;;;;;5042166;28;19924;-58
2022/12/19 06:38:12;;;;;;;;;;;-1.20;99.90;;;;;;5047185;28;20034;-58
2022/12/19 06:43:25;;;;;;;;;;;-1.20;99.90;;;;;;5046319;28;19931;-58
2022/12/19 06:45:52;;;;;;;;;;;-1.20;99.90;;;;;;5041098;28;19939;-57
2022/12/19 06:48:19;;;;;;;;;;;-1.20;99.90;;;;;;5039929;28;19965;-58
2022/12/19 06:50:48;;;;;;;;;;;-1.10;99.90;;;;;;5050778;28;19931;-58
2022/12/19 06:53:18;;;;;;;;;;;-1.20;99.90;;;;;;5044487;28;19931;-60
2022/12/19 06:55:46;;;;;;;;;;;-1.10;99.90;;;;;;5048440;28;19928;-58
2022/12/19 06:58:13;;;;;;;;;;;-1.10;99.90;;;;;;5051324;28;19932;-58
2022/12/19 07:00:40;;;;;;;;;;;-1.10;99.90;;;;;;5039547;28;19925;-58
2022/12/19 07:03:09;;;;;;;;;;;-1.20;99.90;;;;;;5050054;28;19940;-55
2022/12/19 07:05:36;;;;;;;;;;;-1.10;99.90;;;;;;5051148;28;20044;-58
2022/12/19 07:08:02;;;;;;;;;;;-1.10;99.90;;;;;;5050590;28;19925;-58
2022/12/19 07:10:31;;;;;;;;;;;-1.10;99.90;;;;;;5045303;28;19971;-59
2022/12/19 07:12:57;;;;;;;;;;;-1.10;99.90;;;;;;5053681;28;20039;-55
2022/12/19 07:15:24;;;;;;;;;;;-1.10;99.90;;;;;;5047719;28;19931;-55
2022/12/19 07:17:51;;;;;;;;;;;-1.10;99.90;;;;;;5057620;28;19925;-55
2022/12/19 07:20:19;;;;;;;;;;;-1.10;99.90;;;;;;5047868;28;20327;-55
2022/12/19 07:22:46;;;;;;;;;;;-1.10;99.90;;;;;;5045043;28;19935;-55
2022/12/19 07:25:13;;;;;;;;;;;-1.10;99.90;;;;;;5051173;28;19931;-55
2022/12/19 07:27:41;;;;;;;;;;;-1.10;99.90;;;;;;5049978;28;19932;-55
2022/12/19 07:30:09;;;;;;;;;;;-1.10;99.90;;;;;;5047302;28;19925;-55
2022/12/19 07:32:36;;;;;;;;;;;-1.10;99.90;;;;;;5047334;28;19929;-55
2022/12/19 07:35:02;;;;;;;;;;;-1.00;99.90;;;;;;5053079;28;20023;-55
2022/12/19 07:37:29;;;;;;;;;;;-1.10;99.90;;;;;;5051321;28;19964;-55
2022/12/19 07:39:56;;;;;;;;;;;-1.00;99.90;;;;;;5051326;28;20019;-55
2022/12/19 07:42:23;;;;;;;;;;;-1.10;99.90;;;;;;5062871;28;20059;-55
2022/12/19 07:44:51;;;;;;;;;;;-1.10;99.90;;;;;;5061323;28;19932;-55
2022/12/19 07:47:18;;;;;;;;;;;-1.10;99.90;;;;;;5049443;28;19932;-55
2022/12/19 07:49:45;;;;;;;;;;;-1.10;99.90;;;;;;5037295;28;20273;-55
2022/12/19 07:52:11;;;;;;;;;;;-1.00;99.90;;;;;;5054976;28;20101;-55
2022/12/19 07:54:39;;;;;;;;;;;-1.00;99.90;;;;;;5053265;28;19956;-55
2022/12/19 07:57:06;;;;;;;;;;;-1.00;99.90;;;;;;5049475;28;20378;-55
2022/12/19 07:59:33;;;;;;;;;;;-1.00;99.90;;;;;;5055273;28;20335;-55
2022/12/19 08:02:01;;;;;;;;;;;-1.00;99.90;;;;;;5054831;28;19925;-55
2022/12/19 08:04:28;;;;;;;;;;;-1.00;99.90;;;;;;5048360;28;19933;-56
2022/12/19 08:06:55;;;;;;;;;;;-1.00;99.90;;;;;;5056115;28;20986;-55
2022/12/19 08:09:22;;;;;;;;;;;-1.00;99.90;;;;;;5063062;28;20019;-59
2022/12/19 08:11:49;;;;;;;;;;;-1.00;99.90;;;;;;5056879;28;20380;-59
2022/12/19 08:14:15;;;;;;;;;;;-1.00;99.90;;;;;;5043680;28;20420;-59
2022/12/19 08:16:42;;;;;;;;;;;-1.00;99.90;;;;;;5060435;28;20448;-59
2022/12/19 08:19:11;;;;;;;;;;;-1.00;99.90;;;;;;5050328;28;19924;-58
2022/12/19 08:21:37;;;;;;;;;;;-1.00;99.90;;;;;;5051618;28;19924;-58
2022/12/19 08:24:04;;;;;;;;;;;-1.00;99.90;;;;;;5058785;28;19956;-58
2022/12/19 08:26:31;;;;;;;;;;;-0.90;99.90;;;;;;5057589;28;20031;-57
2022/12/19 08:28:58;;;;;;;;;;;-0.90;99.90;;;;;;5056297;28;20384;-58
2022/12/19 08:31:26;;;;;;;;;;;-1.00;99.90;;;;;;5045479;28;19955;-59
2022/12/19 08:33:53;;;;;;;;;;;-0.90;99.90;;;;;;5048985;28;19925;-59
2022/12/19 08:36:22;;;;;;;;;;;-0.90;99.90;;;;;;5053343;28;19925;-58
2022/12/19 08:38:49;;;;;;;;;;;-0.90;99.90;;;;;;5050415;28;19924;-59
2022/12/19 08:41:16;;;;;;;;;;;-0.90;99.90;;;;;;5049115;28;20429;-58
2022/12/19 08:43:43;;;;;;;;;;;-0.90;99.90;;;;;;5056465;28;20292;-59
2022/12/19 08:46:10;;;;;;;;;;;-0.90;99.90;;;;;;5052352;28;20011;-59
2022/12/19 08:48:37;;;;;;;;;;;-0.90;99.90;;;;;;5051723;28;19929;-59
2022/12/19 08:51:04;;;;;;;;;;;-0.90;99.90;;;;;;5052702;28;19931;-59
2022/12/19 08:53:34;;;;;;;;;;;-0.90;99.90;;;;;;5046546;28;20008;-59
2022/12/19 08:56:02;;;;;;;;;;;-0.90;99.90;;;;;;5050037;28;19925;-59
2022/12/19 08:58:29;;;;;;;;;;;-0.90;99.90;;;;;;5053818;28;19925;-58
2022/12/19 09:00:58;;;;;;;;;;;-0.80;99.90;;;;;;5050053;28;20014;-57
2022/12/19 09:03:25;;;;;;;;;;;-0.80;99.90;;;;;;5051362;28;19925;-58
2022/12/19 09:05:54;;;;;;;;;;;-0.80;99.90;;;;;;5054721;28;19935;-58
2022/12/19 09:08:21;;;;;;;;;;;-0.80;99.90;;;;;;5061437;28;20357;-58
2022/12/19 09:10:49;;;;;;;;;;;-0.80;99.90;;;;;;5055408;28;19953;-58
2022/12/19 09:13:16;;;;;;;;;;;-0.80;99.90;;;;;;5059928;28;19925;-58
2022/12/19 09:15:42;;;;;;;;;;;-0.80;99.90;;;;;;5056360;28;19939;-58
2022/12/19 09:18:09;;;;;;;;;;;-0.80;99.90;;;;;;5053824;28;20007;-58
2022/12/19 09:20:36;;;;;;;;;;;-0.80;99.90;;;;;;5055212;28;19925;-58
2022/12/19 09:23:03;;;;;;;;;;;-0.80;99.90;;;;;;5052931;28;19976;-58
2022/12/19 09:25:29;;;;;;;;;;;-0.70;99.90;;;;;;5048630;28;20019;-57
2022/12/19 09:27:57;;;;;;;;;;;-0.80;99.90;;;;;;5054675;28;19965;-57
2022/12/19 09:30:24;;;;;;;;;;;-0.80;99.90;;;;;;5047405;28;19929;-57
2022/12/19 09:32:51;;;;;;;;;;;-0.80;99.90;;;;;;5055459;28;20003;-57
2022/12/19 09:35:18;;;;;;;;;;;-0.80;99.90;;;;;;5059826;28;19928;-58
2022/12/19 09:37:44;;;;;;;;;;;-0.80;99.90;;;;;;5050836;28;19975;-58
2022/12/19 09:40:15;;;;;;;;;;;-0.70;99.90;;;;;;5051725;28;19925;-58
2022/12/19 09:42:50;;;;;;;;;;;-0.80;99.90;;;;;;5055419;28;19956;-58
2022/12/19 09:45:33;;;;;;;;;;;-0.70;99.90;;;;;;5050251;28;21066;-58
2022/12/19 09:48:01;;;;;;;;;;;-0.70;99.90;;;;;;5049463;28;20004;-58
2022/12/19 09:50:32;;;;;;;;;;;-0.70;99.90;;;;;;5052549;28;19935;-58
2022/12/19 09:53:01;;;;;;;;;;;-0.70;99.90;;;;;;5052883;28;19925;-58
2022/12/19 09:55:32;;;;;;;;;;;-0.70;99.90;;;;;;5048927;28;20016;-57
2022/12/19 09:58:02;;;;;;;;;;;-0.70;99.90;;;;;;5052821;28;20044;-57
2022/12/19 10:00:33;;;;;;;;;;;-0.70;99.90;;;;;;5039436;28;19931;-57
2022/12/19 10:03:03;;;;;;;;;;;-0.70;99.90;;;;;;5054298;28;19967;-58
2022/12/19 10:05:31;;;;;;;;;;;-0.70;99.90;;;;;;5048032;28;19925;-57
2022/12/19 10:07:58;;;;;;;;;;;-0.70;99.90;;;;;;5052924;28;19929;-55
2022/12/19 10:10:28;;;;;;;;;;;-0.70;99.90;;;;;;5049128;28;20558;-55
2022/12/19 10:13:05;;;;;;;;;;;-0.70;99.90;;;;;;5043587;28;19971;-55
2022/12/19 10:15:37;;;;;;;;;;;-0.60;99.90;;;;;;5048903;28;20355;-55
2022/12/19 10:18:14;;;;;;;;;;;-0.60;99.90;;;;;;5055524;28;19960;-59
2022/12/19 10:20:42;;;;;;;;;;;-0.60;99.90;;;;;;5051253;28;19979;-58
2022/12/19 10:23:20;;;;;;;;;;;-0.60;99.90;;;;;;5050304;28;19943;-58
2022/12/19 10:25:52;;;;;;;;;;;-0.60;99.90;;;;;;5049045;28;19928;-58
2022/12/19 10:28:27;;;;;;;;;;;-0.60;99.90;;;;;;5052133;28;19928;-58
2022/12/19 10:31:02;;;;;;;;;;;-0.60;99.90;;;;;;5052250;28;19956;-55
2022/12/19 10:33:32;;;;;;;;;;;-0.50;99.90;;;;;;5051461;28;19932;-55
2022/12/19 10:36:00;;;;;;;;;;;-0.60;99.90;;;;;;5049745;28;19924;-55
2022/12/19 10:38:31;;;;;;;;;;;-0.50;99.90;;;;;;5052773;28;19935;-55
2022/12/19 10:41:08;;;;;;;;;;;-0.50;99.90;;;;;;5049601;28;19929;-55
2022/12/19 10:43:40;;;;;;;;;;;-0.50;99.90;;;;;;5046692;28;20012;-56
2022/12/19 10:46:13;;;;;;;;;;;-0.50;99.90;;;;;;5050662;28;20766;-55
2022/12/19 10:48:40;;;;;;;;;;;-0.50;99.90;;;;;;5046701;28;19925;-55
2022/12/19 10:51:11;;;;;;;;;;;-0.40;99.90;;;;;;5052929;28;19932;-55
2022/12/19 10:53:37;;;;;;;;;;;-0.50;99.90;;;;;;5043260;28;19929;-55
2022/12/19 10:56:11;;;;;;;;;;;-0.40;99.90;;;;;;5038258;28;19932;-55
2022/12/19 10:58:41;;;;;;;;;;;-0.40;99.90;;;;;;5045006;28;19925;-55
2022/12/19 11:01:14;;;;;;;;;;;-0.40;99.90;;;;;;5045042;28;19933;-55
2022/12/19 11:03:42;;;;;;;;;;;-0.40;99.90;;;;;;5041146;28;19932;-55
2022/12/19 11:06:23;;;;;;;;;;;-0.40;99.90;;;;;;5045570;28;19943;-55
2022/12/19 11:08:50;;;;;;;;;;;-0.40;99.90;;;;;;5056379;28;19924;-56
2022/12/19 11:11:17;;;;;;;;;;;-0.40;99.90;;;;;;5049409;28;19924;-55
2022/12/19 11:13:45;;;;;;;;;;;-0.30;99.90;;;;;;5043525;28;19974;-55
2022/12/19 11:16:14;;;;;;;;;;;-0.30;99.90;;;;;;5040093;28;20031;-55
2022/12/19 11:18:43;;;;;;;;;;;-0.30;99.90;;;;;;5050892;28;19929;-55
2022/12/19 11:21:15;;;;;;;;;;;-0.30;99.90;;;;;;5042826;28;19955;-55
2022/12/19 11:23:46;;;;;;;;;;;-0.30;99.90;;;;;;5047198;28;19929;-55
2022/12/19 11:26:25;;;;;;;;;;;-0.20;99.90;;;;;;5059043;28;19967;-55
2022/12/19 11:28:52;;;;;;;;;;;-0.20;99.90;;;;;;5053163;28;20381;-56
2022/12/19 11:31:22;;;;;;;;;;;-0.20;99.90;;;;;;5051500;28;19935;-55
2022/12/19 11:33:53;;;;;;;;;;;-0.20;99.90;;;;;;5049772;28;20418;-55
2022/12/19 11:36:28;;;;;;;;;;;-0.20;99.90;;;;;;5049593;28;19924;-55
2022/12/19 11:38:55;;;;;;;;;;;-0.20;99.90;;;;;;5042345;28;19956;-55
2022/12/19 11:41:27;;;;;;;;;;;-0.10;99.90;;;;;;5050112;28;20411;-55
2022/12/19 11:43:55;;;;;;;;;;;-0.10;99.90;;;;;;5050492;28;20126;-58
2022/12/19 11:46:33;;;;;;;;;;;-0.10;99.90;;;;;;5049627;28;19932;-58
2022/12/19 11:49:02;;;;;;;;;;;-0.10;99.90;;;;;;5046733;28;19929;-58
2022/12/19 11:51:32;;;;;;;;;;;-0.10;99.90;;;;;;5052844;28;20035;-58
2022/12/19 11:54:02;;;;;;;;;;;0.00;99.90;;;;;;5059412;28;19924;-58
2022/12/19 11:56:29;;;;;;;;;;;0.00;99.90;;;;;;5044920;28;19924;-58
2022/12/19 11:58:57;;;;;;;;;;;0.00;99.90;;;;;;5053388;28;19925;-59
2022/12/19 12:01:36;;;;;;;;;;;0.00;99.90;;;;;;5047275;28;19925;-58
2022/12/19 12:04:22;;;;;;;;;;;0.00;99.90;;;;;;5055068;28;19933;-59
2022/12/19 12:06:50;;;;;;;;;;;0.00;99.90;;;;;;5050310;28;19962;-59
2022/12/19 12:09:20;;;;;;;;;;;0.00;99.90;;;;;;5050787;28;19924;-58
2022/12/19 12:11:50;;;;;;;;;;;0.10;99.90;;;;;;5047812;28;20048;-58
2022/12/19 12:14:19;;;;;;;;;;;0.00;99.90;;;;;;5045323;28;19925;-61
2022/12/19 12:17:02;;;;;;;;;;;0.00;99.90;;;;;;5051965;28;20469;-58
2022/12/19 12:19:36;;;;;;;;;;;0.10;99.90;;;;;;5052342;28;19974;-59
2022/12/19 12:22:09;;;;;;;;;;;0.10;99.90;;;;;;5047847;28;19936;-59
2022/12/19 12:24:41;;;;;;;;;;;0.10;99.90;;;;;;5041216;28;19925;-59
2022/12/19 12:27:26;;;;;;;;;;;0.10;99.90;;;;;;5054440;28;20035;-59
2022/12/19 12:30:01;;;;;;;;;;;0.10;99.90;;;;;;5055919;28;19979;-59
2022/12/19 12:32:38;;;;;;;;;;;0.10;99.90;;;;;;5050273;28;20019;-59
2022/12/19 12:35:14;;;;;;;;;;;0.20;99.90;;;;;;5047457;28;20291;-58
2022/12/19 12:37:48;;;;;;;;;;;0.10;99.90;;;;;;5044030;28;20020;-60
2022/12/19 12:40:21;;;;;;;;;;;0.10;99.90;;;;;;5056489;28;20419;-59
2022/12/19 12:42:53;;;;;;;;;;;0.10;99.90;;;;;;5045620;28;19972;-58
2022/12/19 12:45:23;;;;;;;;;;;0.20;99.90;;;;;;5056129;28;19974;-58
2022/12/19 12:47:52;;;;;;;;;;;0.10;99.90;;;;;;5052245;28;20435;-59
2022/12/19 12:50:21;;;;;;;;;;;0.20;99.90;;;;;;5049843;28;20456;-59
2022/12/19 12:52:50;;;;;;;;;;;0.20;99.90;;;;;;5050328;28;19933;-57
2022/12/19 12:55:20;;;;;;;;;;;0.20;99.90;;;;;;5053717;28;20453;-57
2022/12/19 12:57:47;;;;;;;;;;;0.20;99.90;;;;;;5057919;28;19932;-57
2022/12/19 13:00:15;;;;;;;;;;;0.20;99.90;;;;;;5056075;28;20342;-57
2022/12/19 13:02:42;;;;;;;;;;;0.20;99.90;;;;;;5048068;28;19940;-57
2022/12/19 13:05:23;;;;;;;;;;;0.30;99.90;;;;;;5056286;28;19925;-57
2022/12/19 13:07:51;;;;;;;;;;;0.30;99.90;;;;;;5056235;28;20047;-57
2022/12/19 13:10:21;;;;;;;;;;;0.30;99.90;;;;;;5055926;28;19924;-59
2022/12/19 13:13:02;;;;;;;;;;;0.30;99.90;;;;;;5053309;28;20023;-59
2022/12/19 13:15:36;;;;;;;;;;;0.30;99.90;;;;;;5059158;28;19935;-58
2022/12/19 13:18:27;;;;;;;;;;;0.30;99.90;;;;;;5054155;28;19978;-59
2022/12/19 13:20:55;;;;;;;;;;;0.30;99.90;;;;;;5059735;28;19964;-59
2022/12/19 13:23:24;;;;;;;;;;;0.40;99.90;;;;;;5050704;28;19935;-58
2022/12/19 13:25:52;;;;;;;;;;;0.40;99.90;;;;;;5045422;28;19932;-59
2022/12/19 13:28:37;;;;;;;;;;;0.40;99.90;;;;;;5051523;28;20315;-59
2022/12/19 13:31:14;;;;;;;;;;;0.40;99.90;;;;;;5049159;28;19939;-60
2022/12/19 13:34:07;;;;;;;;;;;0.40;99.90;;;;;;5053163;28;19963;-59
2022/12/19 13:36:49;;;;;;;;;;;0.40;99.90;;;;;;5046716;28;19924;-59
2022/12/19 13:39:42;;;;;;;;;;;0.40;99.90;;;;;;5055865;28;20392;-59
2022/12/19 13:45:03;;;;;;;;;;;0.50;99.90;;;;;;5020276;28;19933;-59
2022/12/19 13:47:33;;;;;;;;;;;0.50;99.90;;;;;;5048503;28;19933;-59
2022/12/19 13:50:00;;;;;;;;;;;0.50;99.90;;;;;;5046711;28;19928;-59
2022/12/19 13:52:28;;;;;;;;;;;0.50;99.90;;;;;;5044282;28;19924;-59
2022/12/19 13:54:56;;;;;;;;;;;0.50;99.90;;;;;;5056773;28;20343;-59
2022/12/19 13:57:24;;;;;;;;;;;0.50;99.90;;;;;;5046808;28;19933;-59
2022/12/19 13:59:52;;;;;;;;;;;0.50;99.90;;;;;;5058728;28;19972;-58
2022/12/19 14:02:26;;;;;;;;;;;0.60;99.90;;;;;;5049671;28;19936;-55
2022/12/19 14:04:52;;;;;;;;;;;0.60;99.90;;;;;;5046534;28;19926;-59
2022/12/19 14:07:24;;;;;;;;;;;0.60;99.90;;;;;;5049136;28;19936;-59
2022/12/19 14:09:53;;;;;;;;;;;0.60;99.90;;;;;;5052429;28;21430;-58
2022/12/19 14:15:14;;;;;;;;;;;0.60;99.90;;;;;;5053848;28;19920;-57
2022/12/19 14:17:46;;;;;;;;;;;0.60;99.90;;;;;;5054179;28;19951;-57
2022/12/19 14:20:18;;;;;;;;;;;0.60;99.90;;;;;;5056956;28;20384;-57
2022/12/19 14:22:44;;;;;;;;;;;0.60;99.90;;;;;;5047578;28;19932;-57
2022/12/19 14:25:13;;;;;;;;;;;0.60;99.90;;;;;;5050175;28;19933;-59
2022/12/19 14:27:41;;;;;;;;;;;0.70;99.90;;;;;;5050586;28;19929;-58
2022/12/19 14:30:15;;;;;;;;;;;0.70;99.90;;;;;;5049609;28;20000;-58
2022/12/19 14:32:42;;;;;;;;;;;0.70;99.90;;;;;;5052609;28;19933;-58
2022/12/19 14:35:12;;;;;;;;;;;0.70;99.90;;;;;;5052694;28;19958;-59
2022/12/19 14:37:42;;;;;;;;;;;0.70;99.90;;;;;;5050113;28;19967;-58
2022/12/19 14:40:22;;;;;;;;;;;0.60;99.90;;;;;;5045070;28;19982;-59